createdAt,value
2018-01-02T00:00:21.438Z,0.00
2018-01-02T00:01:21.428Z,0.00
2018-01-02T00:02:21.468Z,0.00
2018-01-02T00:03:21.525Z,0.00
2018-01-02T00:04:21.526Z,0.00
2018-01-02T00:05:21.556Z,0.00
2018-01-02T00:06:21.618Z,0.00
2018-01-02T00:07:21.628Z,0.00
2018-01-02T00:08:21.707Z,0.00
2018-01-02T00:09:21.725Z,0.00
2018-01-02T00:10:21.729Z,0.00
2018-01-02T00:11:21.752Z,0.00
2018-01-02T00:12:21.818Z,0.00
2018-01-02T00:13:21.819Z,0.00
2018-01-02T00:14:21.859Z,0.00
2018-01-02T00:15:21.921Z,0.00
2018-01-02T00:16:22.012Z,0.00
2018-01-02T00:17:21.950Z,0.00
2018-01-02T00:18:22.010Z,0.00
2018-01-02T00:19:22.008Z,0.00
2018-01-02T00:20:22.047Z,0.00
2018-01-02T00:21:22.089Z,0.00
2018-01-02T00:22:22.159Z,0.00
2018-01-02T00:23:22.137Z,0.00
2018-01-02T00:24:22.180Z,0.00
2018-01-02T00:25:22.248Z,0.00
2018-01-02T00:26:22.241Z,0.00
2018-01-02T00:27:22.280Z,0.00
2018-01-02T00:28:22.336Z,0.00
2018-01-02T00:29:22.337Z,0.00
2018-01-02T00:30:22.361Z,0.00
2018-01-02T00:31:22.439Z,0.00
2018-01-02T00:32:22.436Z,0.00
2018-01-02T00:33:22.459Z,0.00
2018-01-02T00:34:22.537Z,0.00
2018-01-02T00:35:22.527Z,0.00
2018-01-02T00:36:22.559Z,0.00
2018-01-02T00:37:22.632Z,0.00
2018-01-02T00:38:22.626Z,0.00
2018-01-02T00:39:23.246Z,0.00
2018-01-02T00:40:22.713Z,0.00
2018-01-02T00:41:22.713Z,0.00
2018-01-02T00:42:22.757Z,0.00
2018-01-02T00:43:22.821Z,0.00
2018-01-02T00:44:22.816Z,0.00
2018-01-02T00:45:22.860Z,0.00
2018-01-02T00:46:22.965Z,0.00
2018-01-02T00:47:22.915Z,0.00
2018-01-02T00:48:22.938Z,0.00
2018-01-02T00:49:23.006Z,0.00
2018-01-02T00:50:23.025Z,0.00
2018-01-02T00:51:23.054Z,0.00
2018-01-02T00:52:23.108Z,0.00
2018-01-02T00:53:23.110Z,0.00
2018-01-02T00:54:23.144Z,0.00
2018-01-02T00:55:23.202Z,0.00
2018-01-02T00:56:23.196Z,0.00
2018-01-02T00:57:23.242Z,0.00
2018-01-02T00:58:23.304Z,0.00
2018-01-02T00:59:23.326Z,0.00
2018-01-02T01:00:23.335Z,0.00
2018-01-02T01:01:23.432Z,0.00
2018-01-02T01:02:23.407Z,0.00
2018-01-02T01:03:23.450Z,0.00
2018-01-02T01:04:23.485Z,0.00
2018-01-02T01:05:23.534Z,0.00
2018-01-02T01:06:23.586Z,0.00
2018-01-02T01:07:23.612Z,0.00
2018-01-02T01:08:23.636Z,0.00
2018-01-02T01:09:23.687Z,0.00
2018-01-02T01:10:23.694Z,0.00
2018-01-02T01:11:23.730Z,0.00
2018-01-02T01:12:23.771Z,0.00
2018-01-02T01:13:23.790Z,0.00
2018-01-02T01:14:23.807Z,0.00
2018-01-02T01:15:23.884Z,0.00
2018-01-02T01:16:23.913Z,0.00
2018-01-02T01:17:23.918Z,0.00
2018-01-02T01:18:24.008Z,0.00
2018-01-02T01:19:23.997Z,0.00
2018-01-02T01:20:24.041Z,0.00
2018-01-02T01:21:24.122Z,0.00
2018-01-02T01:22:24.134Z,0.00
2018-01-02T01:23:24.131Z,0.00
2018-01-02T01:24:24.218Z,0.00
2018-01-02T01:25:24.202Z,0.00
2018-01-02T01:26:24.253Z,0.00
2018-01-02T01:27:24.299Z,0.00
2018-01-02T01:28:24.330Z,0.00
2018-01-02T01:29:24.350Z,0.00
2018-01-02T01:30:24.404Z,0.00
2018-01-02T01:31:24.397Z,0.00
2018-01-02T01:32:24.456Z,0.00
2018-01-02T01:33:24.573Z,0.00
2018-01-02T01:34:24.485Z,0.00
2018-01-02T01:35:24.517Z,0.00
2018-01-02T01:36:24.612Z,0.00
2018-01-02T01:37:24.585Z,0.00
2018-01-02T01:38:24.641Z,5.63
2018-01-02T01:39:24.699Z,5.63
2018-01-02T01:40:24.710Z,5.63
2018-01-02T01:41:24.740Z,5.63
2018-01-02T01:42:24.817Z,5.63
2018-01-02T01:43:24.785Z,5.63
2018-01-02T01:44:24.809Z,5.63
2018-01-02T01:45:24.881Z,5.63
2018-01-02T01:46:24.910Z,5.63
2018-01-02T01:47:24.933Z,5.63
2018-01-02T01:48:25.001Z,5.63
2018-01-02T01:49:24.987Z,5.63
2018-01-02T01:50:25.050Z,5.63
2018-01-02T01:51:25.097Z,5.63
2018-01-02T01:52:25.093Z,5.63
2018-01-02T01:53:25.167Z,5.63
2018-01-02T01:54:25.464Z,5.63
2018-01-02T01:55:25.177Z,5.63
2018-01-02T01:56:25.236Z,5.63
2018-01-02T01:57:25.279Z,5.63
2018-01-02T01:58:25.289Z,5.63
2018-01-02T01:59:25.301Z,5.63
2018-01-02T02:00:25.365Z,5.63
2018-01-02T02:01:25.387Z,5.63
2018-01-02T02:02:25.413Z,5.63
2018-01-02T02:03:25.472Z,5.63
2018-01-02T02:04:25.446Z,11.25
2018-01-02T02:05:25.491Z,11.25
2018-01-02T02:06:25.582Z,11.25
2018-01-02T02:07:25.588Z,11.25
2018-01-02T02:08:25.603Z,11.25
2018-01-02T02:09:25.688Z,11.25
2018-01-02T02:10:25.683Z,11.25
2018-01-02T02:11:25.710Z,11.25
2018-01-02T02:12:25.767Z,11.25
2018-01-02T02:13:25.763Z,11.25
2018-01-02T02:14:25.820Z,11.25
2018-01-02T02:15:25.839Z,11.25
2018-01-02T02:16:25.879Z,22.50
2018-01-02T02:17:25.897Z,22.50
2018-01-02T02:18:25.973Z,22.50
2018-01-02T02:19:25.955Z,22.50
2018-01-02T02:20:25.988Z,22.50
2018-01-02T02:21:26.054Z,22.50
2018-01-02T02:22:26.058Z,22.50
2018-01-02T02:23:26.104Z,22.50
2018-01-02T02:24:26.126Z,22.50
2018-01-02T02:25:26.177Z,22.50
2018-01-02T02:26:26.200Z,22.50
2018-01-02T02:27:26.236Z,22.50
2018-01-02T02:28:26.258Z,28.13
2018-01-02T02:29:26.279Z,28.13
2018-01-02T02:30:26.329Z,28.13
2018-01-02T02:31:26.363Z,28.13
2018-01-02T02:32:26.378Z,28.13
2018-01-02T02:33:26.436Z,28.13
2018-01-02T02:34:26.433Z,28.13
2018-01-02T02:35:26.462Z,28.13
2018-01-02T02:36:26.539Z,28.13
2018-01-02T02:37:26.550Z,28.13
2018-01-02T02:38:26.560Z,28.13
2018-01-02T02:39:26.634Z,33.75
2018-01-02T02:40:26.636Z,33.75
2018-01-02T02:41:26.628Z,33.75
2018-01-02T02:42:26.741Z,33.75
2018-01-02T02:43:26.709Z,33.75
2018-01-02T02:44:26.755Z,33.75
2018-01-02T02:45:26.815Z,33.75
2018-01-02T02:46:26.820Z,33.75
2018-01-02T02:47:26.860Z,33.75
2018-01-02T02:48:26.915Z,33.75
2018-01-02T02:49:26.881Z,33.75
2018-01-02T02:50:26.936Z,33.75
2018-01-02T02:51:26.983Z,33.75
2018-01-02T02:52:27.013Z,33.75
2018-01-02T02:53:27.063Z,33.75
2018-01-02T02:54:27.103Z,39.38
2018-01-02T02:55:27.092Z,39.38
2018-01-02T02:56:27.136Z,39.38
2018-01-02T02:57:27.182Z,39.38
2018-01-02T02:58:27.198Z,39.38
2018-01-02T02:59:27.228Z,39.38
2018-01-02T03:00:27.297Z,39.38
2018-01-02T03:01:27.303Z,39.38
2018-01-02T03:02:27.341Z,45.00
2018-01-02T03:03:27.385Z,45.00
2018-01-02T03:04:27.402Z,45.00
2018-01-02T03:05:27.432Z,45.00
2018-01-02T03:06:27.462Z,45.00
2018-01-02T03:07:27.488Z,50.63
2018-01-02T03:08:27.504Z,50.63
2018-01-02T03:09:27.586Z,50.63
2018-01-02T03:10:27.575Z,50.63
2018-01-02T03:11:27.612Z,50.63
2018-01-02T03:12:27.666Z,50.63
2018-01-02T03:13:27.676Z,50.63
2018-01-02T03:14:27.707Z,50.63
2018-01-02T03:15:27.746Z,50.63
2018-01-02T03:16:27.774Z,50.63
2018-01-02T03:17:27.804Z,50.63
2018-01-02T03:18:27.859Z,50.63
2018-01-02T03:19:27.865Z,50.63
2018-01-02T03:20:27.910Z,50.63
2018-01-02T03:21:28.026Z,50.63
2018-01-02T03:22:27.967Z,50.63
2018-01-02T03:23:27.995Z,50.63
2018-01-02T03:24:28.043Z,56.25
2018-01-02T03:25:28.068Z,56.25
2018-01-02T03:26:28.106Z,56.25
2018-01-02T03:27:28.151Z,56.25
2018-01-02T03:28:28.144Z,56.25
2018-01-02T03:29:28.193Z,56.25
2018-01-02T03:30:28.261Z,56.25
2018-01-02T03:31:28.309Z,56.25
2018-01-02T03:32:28.256Z,56.25
2018-01-02T03:33:28.309Z,56.25
2018-01-02T03:34:28.386Z,61.88
2018-01-02T03:35:28.378Z,95.63
2018-01-02T03:36:28.414Z,73.13
2018-01-02T03:37:28.787Z,73.13
2018-01-02T03:38:28.476Z,73.13
2018-01-02T03:39:28.501Z,73.13
2018-01-02T03:40:28.560Z,73.13
2018-01-02T03:41:28.564Z,73.13
2018-01-02T03:42:28.612Z,73.13
2018-01-02T03:43:28.662Z,73.13
2018-01-02T03:44:28.677Z,73.13
2018-01-02T03:45:28.695Z,78.75
2018-01-02T03:46:28.761Z,78.75
2018-01-02T03:47:28.761Z,78.75
2018-01-02T03:48:28.784Z,78.75
2018-01-02T03:49:28.850Z,78.75
2018-01-02T03:50:28.954Z,78.75
2018-01-02T03:51:28.893Z,78.75
2018-01-02T03:52:28.981Z,78.75
2018-01-02T03:53:28.937Z,78.75
2018-01-02T03:54:28.991Z,78.75
2018-01-02T03:55:29.062Z,78.75
2018-01-02T03:56:29.052Z,78.75
2018-01-02T03:57:29.085Z,78.75
2018-01-02T03:58:29.151Z,78.75
2018-01-02T03:59:29.157Z,78.75
2018-01-02T04:00:29.191Z,78.75
2018-01-02T04:01:29.258Z,78.75
2018-01-02T04:02:29.547Z,84.38
2018-01-02T04:03:29.289Z,84.38
2018-01-02T04:04:29.328Z,84.38
2018-01-02T04:05:29.339Z,84.38
2018-01-02T04:06:29.377Z,84.38
2018-01-02T04:07:29.443Z,84.38
2018-01-02T04:08:29.445Z,84.38
2018-01-02T04:09:29.468Z,84.38
2018-01-02T04:10:29.524Z,84.38
2018-01-02T04:11:29.536Z,84.38
2018-01-02T04:12:29.561Z,84.38
2018-01-02T04:13:29.623Z,84.38
2018-01-02T04:14:29.644Z,84.38
2018-01-02T04:15:29.646Z,84.38
2018-01-02T04:16:29.726Z,90.00
2018-01-02T04:17:29.733Z,90.00
2018-01-02T04:18:29.772Z,90.00
2018-01-02T04:19:29.825Z,90.00
2018-01-02T04:20:29.830Z,90.00
2018-01-02T04:21:29.860Z,90.00
2018-01-02T04:22:29.912Z,90.00
2018-01-02T04:23:29.914Z,90.00
2018-01-02T04:24:29.953Z,90.00
2018-01-02T04:25:30.016Z,95.63
2018-01-02T04:26:30.080Z,95.63
2018-01-02T04:27:30.059Z,95.63
2018-01-02T04:28:30.113Z,95.63
2018-01-02T04:29:30.127Z,95.63
2018-01-02T04:30:30.149Z,95.63
2018-01-02T04:31:30.245Z,95.63
2018-01-02T04:32:30.360Z,101.25
2018-01-02T04:33:30.253Z,95.63
2018-01-02T04:34:30.312Z,95.63
2018-01-02T04:35:30.308Z,95.63
2018-01-02T04:36:30.350Z,95.63
2018-01-02T04:37:30.385Z,95.63
2018-01-02T04:38:30.445Z,101.25
2018-01-02T04:39:30.441Z,95.63
2018-01-02T04:40:30.473Z,95.63
2018-01-02T04:41:30.544Z,95.63
2018-01-02T04:42:30.537Z,95.63
2018-01-02T04:43:30.576Z,101.25
2018-01-02T04:44:30.638Z,101.25
2018-01-02T04:45:30.635Z,101.25
2018-01-02T04:46:30.664Z,95.63
2018-01-02T04:47:30.730Z,101.25
2018-01-02T04:48:30.747Z,101.25
2018-01-02T04:49:30.768Z,101.25
2018-01-02T04:50:30.838Z,101.25
2018-01-02T04:51:30.829Z,101.25
2018-01-02T04:52:30.863Z,101.25
2018-01-02T04:53:30.928Z,101.25
2018-01-02T04:54:30.928Z,101.25
2018-01-02T04:55:31.224Z,106.88
2018-01-02T04:56:31.023Z,101.25
2018-01-02T04:57:31.295Z,101.25
2018-01-02T04:58:31.071Z,101.25
2018-01-02T04:59:31.129Z,106.88
2018-01-02T05:00:31.136Z,106.88
2018-01-02T05:01:31.250Z,106.88
2018-01-02T05:02:31.231Z,112.50
2018-01-02T05:03:31.216Z,112.50
2018-01-02T05:04:31.261Z,112.50
2018-01-02T05:05:31.318Z,112.50
2018-01-02T05:06:31.647Z,112.50
2018-01-02T05:07:31.367Z,112.50
2018-01-02T05:08:31.424Z,118.13
2018-01-02T05:09:31.418Z,112.50
2018-01-02T05:10:31.446Z,112.50
2018-01-02T05:11:31.513Z,118.13
2018-01-02T05:12:31.515Z,118.13
2018-01-02T05:13:31.553Z,118.13
2018-01-02T05:14:31.611Z,123.75
2018-01-02T05:15:31.612Z,118.13
2018-01-02T05:16:31.646Z,118.13
2018-01-02T05:17:31.714Z,118.13
2018-01-02T05:18:31.720Z,123.75
2018-01-02T05:19:31.778Z,123.75
2018-01-02T05:20:31.780Z,123.75
2018-01-02T05:21:31.825Z,123.75
2018-01-02T05:22:31.879Z,129.38
2018-01-02T05:23:31.889Z,129.38
2018-01-02T05:24:31.912Z,129.38
2018-01-02T05:25:31.984Z,129.38
2018-01-02T05:26:31.977Z,135.00
2018-01-02T05:27:32.008Z,135.00
2018-01-02T05:28:32.073Z,140.63
2018-01-02T05:29:32.077Z,151.88
2018-01-02T05:30:32.114Z,157.50
2018-01-02T05:31:32.171Z,185.63
2018-01-02T05:32:32.172Z,270.00
2018-01-02T05:33:32.207Z,337.50
2018-01-02T05:34:32.279Z,354.38
2018-01-02T05:35:32.279Z,365.63
2018-01-02T05:36:32.499Z,388.13
2018-01-02T05:37:32.421Z,410.63
2018-01-02T05:38:32.371Z,438.75
2018-01-02T05:39:32.418Z,444.38
2018-01-02T05:40:32.477Z,500.63
2018-01-02T05:41:32.488Z,945.00
2018-01-02T05:42:32.504Z,1389.38
2018-01-02T05:43:32.568Z,1445.63
2018-01-02T05:44:32.566Z,1440.00
2018-01-02T05:45:32.606Z,1462.50
2018-01-02T05:46:32.670Z,1496.25
2018-01-02T05:47:32.670Z,1479.38
2018-01-02T05:48:32.718Z,1575.00
2018-01-02T05:49:32.785Z,1642.50
2018-01-02T05:51:32.817Z,1721.25
2018-01-02T05:52:32.881Z,1704.38
2018-01-02T05:53:32.908Z,1648.13
2018-01-02T05:54:32.934Z,1648.13
2018-01-02T05:56:32.997Z,1653.75
2018-01-02T05:57:33.056Z,1597.50
2018-01-02T05:58:33.072Z,1552.50
2018-01-02T05:59:33.118Z,1608.75
2018-01-02T06:00:33.178Z,1575.00
2018-01-02T06:01:33.194Z,1575.00
2018-01-02T06:02:33.347Z,1591.88
2018-01-02T06:03:33.290Z,1558.13
2018-01-02T06:04:33.294Z,1653.75
2018-01-02T06:05:33.334Z,1642.50
2018-01-02T06:06:33.405Z,1648.13
2018-01-02T06:07:33.397Z,1676.25
2018-01-02T06:08:33.703Z,1676.25
2018-01-02T06:09:33.521Z,1653.75
2018-01-02T06:10:33.530Z,1636.88
2018-01-02T06:11:33.567Z,1563.75
2018-01-02T06:12:33.644Z,1445.63
2018-01-02T06:13:33.647Z,1361.25
2018-01-02T06:14:33.682Z,1361.25
2018-01-02T06:15:33.758Z,1338.75
2018-01-02T06:16:33.766Z,1243.13
2018-01-02T06:17:33.811Z,1316.25
2018-01-02T06:18:33.869Z,1395.00
2018-01-02T06:19:33.873Z,1451.25
2018-01-02T06:20:33.914Z,1496.25
2018-01-02T06:21:33.997Z,1440.00
2018-01-02T06:22:34.021Z,1445.63
2018-01-02T06:23:34.043Z,1445.63
2018-01-02T06:24:34.122Z,1372.50
2018-01-02T06:26:34.178Z,1203.75
2018-01-02T06:27:34.204Z,1164.38
2018-01-02T06:28:34.276Z,1181.25
2018-01-02T06:29:34.279Z,1226.25
2018-01-02T06:30:34.377Z,1282.50
2018-01-02T06:31:34.386Z,1310.63
2018-01-02T06:32:34.389Z,1361.25
2018-01-02T06:33:34.463Z,1327.50
2018-01-02T06:34:34.503Z,1344.38
2018-01-02T06:35:34.515Z,1395.00
2018-01-02T06:36:34.554Z,1400.63
2018-01-02T06:37:34.638Z,1417.50
2018-01-02T06:38:34.646Z,1428.75
2018-01-02T06:39:34.673Z,1395.00
2018-01-02T06:40:34.760Z,1389.38
2018-01-02T06:41:34.757Z,1389.38
2018-01-02T06:42:34.800Z,1389.38
2018-01-02T06:43:34.937Z,1406.25
2018-01-02T06:44:34.881Z,1400.63
2018-01-02T06:45:34.934Z,1411.88
2018-01-02T06:46:35.044Z,1400.63
2018-01-02T06:47:35.001Z,1383.75
2018-01-02T06:48:35.055Z,1344.38
2018-01-02T06:49:35.125Z,1282.50
2018-01-02T06:50:35.127Z,1231.88
2018-01-02T06:51:35.177Z,1220.63
2018-01-02T06:52:35.247Z,1237.50
2018-01-02T06:53:35.243Z,1299.38
2018-01-02T06:54:35.300Z,1271.25
2018-01-02T06:55:35.368Z,1108.13
2018-01-02T06:56:35.676Z,241.88
2018-01-02T06:57:35.416Z,236.25
2018-01-02T06:58:35.497Z,388.13
2018-01-02T06:59:35.496Z,1181.25
2018-01-02T07:00:35.538Z,1130.63
2018-01-02T07:01:35.619Z,1372.50
2018-01-02T07:02:35.634Z,1260.00
2018-01-02T07:03:35.661Z,1338.75
2018-01-02T07:04:35.733Z,1299.38
2018-01-02T07:05:35.741Z,556.88
2018-01-02T07:06:35.779Z,230.63
2018-01-02T07:07:35.864Z,247.50
2018-01-02T07:08:35.863Z,258.75
2018-01-02T07:09:35.909Z,270.00
2018-01-02T07:10:36.221Z,635.63
2018-01-02T07:11:35.982Z,798.75
2018-01-02T07:12:36.035Z,1113.75
2018-01-02T07:13:36.096Z,1147.50
2018-01-02T07:14:36.115Z,275.63
2018-01-02T07:15:36.151Z,315.00
2018-01-02T07:16:36.217Z,118.13
2018-01-02T07:17:36.227Z,140.63
2018-01-02T07:18:36.260Z,168.75
2018-01-02T07:19:36.333Z,225.00
2018-01-02T07:20:36.341Z,1108.13
2018-01-02T07:21:36.383Z,1102.50
2018-01-02T07:22:36.445Z,1125.00
2018-01-02T07:23:36.459Z,1175.63
2018-01-02T07:24:36.496Z,1130.63
2018-01-02T07:26:36.607Z,916.88
2018-01-02T07:27:36.625Z,815.63
2018-01-02T07:28:36.661Z,939.38
2018-01-02T07:29:36.735Z,630.00
2018-01-02T07:30:36.944Z,196.88
2018-01-02T07:31:36.793Z,180.00
2018-01-02T07:32:36.853Z,185.63
2018-01-02T07:33:36.851Z,174.38
2018-01-02T07:34:36.892Z,118.13
2018-01-02T07:35:37.160Z,106.88
2018-01-02T07:36:36.964Z,101.25
2018-01-02T07:37:37.009Z,95.63
2018-01-02T07:38:37.084Z,95.63
2018-01-02T07:39:37.090Z,101.25
2018-01-02T07:40:37.128Z,112.50
2018-01-02T07:41:37.187Z,123.75
2018-01-02T07:42:37.212Z,140.63
2018-01-02T07:43:37.240Z,151.88
2018-01-02T07:44:37.302Z,151.88
2018-01-02T07:45:37.312Z,151.88
2018-01-02T07:46:37.651Z,140.63
2018-01-02T07:47:37.431Z,140.63
2018-01-02T07:48:37.425Z,151.88
2018-01-02T07:49:37.470Z,151.88
2018-01-02T07:50:37.529Z,135.00
2018-01-02T07:51:37.532Z,123.75
2018-01-02T07:52:37.571Z,118.13
2018-01-02T07:53:37.617Z,129.38
2018-01-02T07:54:37.685Z,140.63
2018-01-02T07:55:37.942Z,146.25
2018-01-02T07:56:37.711Z,157.50
2018-01-02T07:57:38.063Z,157.50
2018-01-02T07:58:38.091Z,157.50
2018-01-02T07:59:37.817Z,146.25
2018-01-02T08:00:37.896Z,140.63
2018-01-02T08:01:37.898Z,129.38
2018-01-02T08:02:37.935Z,135.00
2018-01-02T08:03:38.005Z,135.00
2018-01-02T08:04:38.010Z,118.13
2018-01-02T08:05:38.052Z,118.13
2018-01-02T08:06:38.120Z,112.50
2018-01-02T08:07:38.270Z,106.88
2018-01-02T08:08:38.144Z,101.25
2018-01-02T08:09:38.220Z,106.88
2018-01-02T08:10:38.230Z,112.50
2018-01-02T08:11:38.267Z,118.13
2018-01-02T08:12:38.342Z,123.75
2018-01-02T08:13:38.323Z,123.75
2018-01-02T08:14:38.370Z,123.75
2018-01-02T08:15:38.427Z,123.75
2018-01-02T08:16:38.786Z,118.13
2018-01-02T08:17:38.489Z,112.50
2018-01-02T08:18:38.534Z,106.88
2018-01-02T08:19:38.539Z,95.63
2018-01-02T08:20:38.637Z,95.63
2018-01-02T08:21:38.699Z,95.63
2018-01-02T08:22:38.945Z,95.63
2018-01-02T08:23:38.673Z,95.63
2018-01-02T08:24:38.820Z,95.63
2018-01-02T08:25:38.751Z,95.63
2018-01-02T08:26:38.796Z,101.25
2018-01-02T08:27:38.848Z,95.63
2018-01-02T08:28:38.864Z,95.63
2018-01-02T08:29:38.897Z,90.00
2018-01-02T08:30:38.951Z,84.38
2018-01-02T08:31:39.161Z,78.75
2018-01-02T08:32:38.996Z,78.75
2018-01-02T08:33:39.055Z,78.75
2018-01-02T08:34:39.260Z,84.38
2018-01-02T08:35:39.419Z,90.00
2018-01-02T08:36:39.166Z,90.00
2018-01-02T08:37:39.165Z,90.00
2018-01-02T08:38:39.199Z,90.00
2018-01-02T08:39:39.793Z,90.00
2018-01-02T08:40:39.276Z,84.38
2018-01-02T08:41:39.302Z,84.38
2018-01-02T08:42:39.423Z,78.75
2018-01-02T08:43:39.578Z,78.75
2018-01-02T08:44:39.410Z,78.75
2018-01-02T08:45:39.468Z,84.38
2018-01-02T08:46:39.472Z,84.38
2018-01-02T08:47:39.512Z,84.38
2018-01-02T08:48:39.569Z,78.75
2018-01-02T08:49:39.587Z,78.75
2018-01-02T08:50:39.616Z,73.13
2018-01-02T08:51:39.671Z,33.75
2018-01-02T08:52:39.677Z,28.13
2018-01-02T08:53:39.721Z,28.13
2018-01-02T08:54:39.804Z,28.13
2018-01-02T08:55:39.802Z,28.13
2018-01-02T08:56:39.847Z,33.75
2018-01-02T08:57:39.896Z,33.75
2018-01-02T08:58:39.973Z,39.38
2018-01-02T09:00:40.005Z,33.75
2018-01-02T09:01:40.024Z,33.75
2018-01-02T09:02:40.190Z,33.75
2018-01-02T09:03:40.131Z,33.75
2018-01-02T09:04:40.170Z,33.75
2018-01-02T09:05:40.211Z,33.75
2018-01-02T09:06:40.222Z,33.75
2018-01-02T09:07:40.293Z,28.13
2018-01-02T09:08:40.330Z,22.50
2018-01-02T09:09:40.336Z,22.50
2018-01-02T09:10:40.364Z,22.50
2018-01-02T09:11:40.704Z,22.50
2018-01-02T09:12:40.407Z,22.50
2018-01-02T09:13:40.453Z,28.13
2018-01-02T09:14:40.522Z,28.13
2018-01-02T09:15:40.522Z,28.13
2018-01-02T09:16:40.533Z,28.13
2018-01-02T09:17:40.603Z,28.13
2018-01-02T09:18:40.610Z,28.13
2018-01-02T09:19:40.650Z,28.13
2018-01-02T09:20:40.735Z,28.13
2018-01-02T09:21:40.787Z,22.50
2018-01-02T09:22:40.796Z,22.50
2018-01-02T09:23:40.865Z,22.50
2018-01-02T09:24:40.852Z,22.50
2018-01-02T09:25:40.869Z,22.50
2018-01-02T09:26:40.944Z,22.50
2018-01-02T09:27:40.944Z,22.50
2018-01-02T09:28:40.963Z,22.50
2018-01-02T09:29:41.024Z,22.50
2018-01-02T09:30:41.017Z,22.50
2018-01-02T09:31:41.069Z,22.50
2018-01-02T09:32:41.120Z,22.50
2018-01-02T09:33:43.156Z,22.50
2018-01-02T09:34:41.197Z,22.50
2018-01-02T09:35:41.244Z,22.50
2018-01-02T09:36:41.377Z,22.50
2018-01-02T09:37:41.261Z,22.50
2018-01-02T09:38:41.320Z,22.50
2018-01-02T09:39:41.314Z,22.50
2018-01-02T09:40:41.412Z,22.50
2018-01-02T09:41:41.391Z,22.50
2018-01-02T09:42:41.433Z,22.50
2018-01-02T09:43:41.476Z,22.50
2018-01-02T09:44:41.509Z,22.50
2018-01-02T09:45:41.525Z,22.50
2018-01-02T09:46:41.589Z,22.50
2018-01-02T09:47:41.594Z,22.50
2018-01-02T09:48:41.624Z,22.50
2018-01-02T09:49:41.719Z,22.50
2018-01-02T09:50:41.740Z,22.50
2018-01-02T09:51:41.714Z,22.50
2018-01-02T09:52:42.024Z,16.88
2018-01-02T09:53:41.812Z,16.88
2018-01-02T09:54:41.860Z,16.88
2018-01-02T09:55:41.929Z,16.88
2018-01-02T09:56:41.944Z,11.25
2018-01-02T09:57:41.975Z,11.25
2018-01-02T09:58:42.025Z,11.25
2018-01-02T09:59:42.920Z,11.25
2018-01-02T10:00:43.289Z,11.25
2018-01-02T10:01:42.123Z,11.25
2018-01-02T10:02:42.117Z,11.25
2018-01-02T10:03:42.150Z,11.25
2018-01-02T10:04:42.229Z,11.25
2018-01-02T10:05:42.234Z,11.25
2018-01-02T10:06:42.288Z,11.25
2018-01-02T10:07:42.338Z,11.25
2018-01-02T10:08:42.353Z,11.25
2018-01-02T10:09:42.382Z,11.25
2018-01-02T10:10:42.446Z,11.25
2018-01-02T10:11:42.422Z,11.25
2018-01-02T10:12:42.468Z,11.25
2018-01-02T10:13:42.542Z,11.25
2018-01-02T10:14:42.537Z,11.25
2018-01-02T10:15:42.559Z,11.25
2018-01-02T10:16:42.653Z,11.25
2018-01-02T10:17:42.643Z,11.25
2018-01-02T10:18:42.668Z,11.25
2018-01-02T10:19:42.733Z,11.25
2018-01-02T10:20:42.694Z,11.25
2018-01-02T10:21:42.922Z,11.25
2018-01-02T10:22:42.822Z,11.25
2018-01-02T10:23:42.791Z,11.25
2018-01-02T10:24:42.847Z,11.25
2018-01-02T10:25:43.202Z,5.63
2018-01-02T10:26:42.918Z,5.63
2018-01-02T10:27:42.933Z,5.63
2018-01-02T10:28:43.013Z,5.63
2018-01-02T10:29:43.015Z,5.63
2018-01-02T10:30:43.054Z,5.63
2018-01-02T10:31:43.320Z,5.63
2018-01-02T10:32:43.105Z,5.63
2018-01-02T10:33:43.161Z,5.63
2018-01-02T10:34:43.418Z,5.63
2018-01-02T10:35:43.233Z,5.63
2018-01-02T10:36:43.240Z,5.63
2018-01-02T10:37:43.348Z,5.63
2018-01-02T10:38:43.354Z,5.63
2018-01-02T10:39:43.367Z,5.63
2018-01-02T10:40:43.427Z,5.63
2018-01-02T10:41:43.734Z,5.63
2018-01-02T10:42:43.464Z,5.63
2018-01-02T10:44:43.554Z,5.63
2018-01-02T10:45:43.569Z,5.63
2018-01-02T10:46:43.603Z,5.63
2018-01-02T10:47:43.660Z,5.63
2018-01-02T10:48:43.671Z,5.63
2018-01-02T10:49:43.698Z,5.63
2018-01-02T10:50:43.781Z,5.63
2018-01-02T10:51:44.000Z,5.63
2018-01-02T10:52:43.833Z,5.63
2018-01-02T10:53:43.883Z,5.63
2018-01-02T10:54:43.886Z,5.63
2018-01-02T10:55:43.892Z,5.63
2018-01-02T10:56:43.978Z,5.63
2018-01-02T10:57:43.991Z,5.63
2018-01-02T10:58:44.017Z,5.63
2018-01-02T10:59:44.089Z,5.63
2018-01-02T11:00:44.124Z,5.63
2018-01-02T11:01:44.122Z,0.00
2018-01-02T11:02:44.199Z,0.00
2018-01-02T11:03:44.196Z,0.00
2018-01-02T11:04:44.232Z,0.00
2018-01-02T11:05:44.307Z,0.00
2018-01-02T11:06:44.294Z,0.00
2018-01-02T11:07:44.322Z,0.00
2018-01-02T11:08:44.387Z,0.00
2018-01-02T11:09:44.649Z,0.00
2018-01-02T11:10:44.442Z,0.00
2018-01-02T11:11:44.474Z,0.00
2018-01-02T11:12:44.496Z,0.00
2018-01-02T11:13:44.536Z,0.00
2018-01-02T11:14:44.895Z,0.00
2018-01-02T11:15:44.598Z,0.00
2018-01-02T11:16:44.627Z,0.00
2018-01-02T11:17:44.707Z,0.00
2018-01-02T11:18:44.705Z,0.00
2018-01-02T11:19:44.737Z,0.00
2018-01-02T11:20:44.797Z,0.00
2018-01-02T11:21:44.803Z,0.00
2018-01-02T11:22:44.833Z,0.00
2018-01-02T11:23:44.896Z,0.00
2018-01-02T11:24:44.907Z,0.00
2018-01-02T11:25:44.925Z,0.00
2018-01-02T11:26:44.995Z,0.00
2018-01-02T11:27:45.006Z,0.00
2018-01-02T11:28:45.061Z,0.00
2018-01-02T11:29:45.120Z,0.00
2018-01-02T11:30:45.113Z,0.00
2018-01-02T11:31:45.145Z,0.00
2018-01-02T11:32:45.198Z,0.00
2018-01-02T11:33:45.201Z,0.00
2018-01-02T11:34:45.229Z,0.00
2018-01-02T11:35:45.298Z,0.00
2018-01-02T11:36:45.303Z,0.00
2018-01-02T11:37:45.328Z,0.00
2018-01-02T11:38:45.398Z,0.00
2018-01-02T11:39:45.393Z,0.00
2018-01-02T11:40:45.436Z,0.00
2018-01-02T11:41:45.503Z,0.00
2018-01-02T11:42:45.497Z,0.00
2018-01-02T11:43:45.548Z,0.00
2018-01-02T11:44:45.600Z,0.00
2018-01-02T11:45:45.598Z,0.00
2018-01-02T11:46:45.682Z,0.00
2018-01-02T11:47:45.704Z,0.00
2018-01-02T11:48:45.716Z,0.00
2018-01-02T11:49:45.762Z,0.00
2018-01-02T11:50:45.833Z,0.00
2018-01-02T11:51:45.816Z,0.00
2018-01-02T11:52:45.845Z,0.00
2018-01-02T11:53:45.894Z,0.00
2018-01-02T11:54:45.921Z,0.00
2018-01-02T11:55:45.943Z,0.00
2018-01-02T11:56:46.021Z,0.00
2018-01-02T11:57:46.030Z,0.00
2018-01-02T11:58:46.040Z,0.00
2018-01-02T11:59:46.108Z,0.00
2018-01-02T12:00:46.123Z,0.00
2018-01-02T12:01:46.147Z,0.00
2018-01-02T12:02:46.213Z,0.00
2018-01-02T12:03:46.221Z,0.00
2018-01-02T12:04:46.259Z,0.00
2018-01-02T12:05:46.314Z,0.00
2018-01-02T12:06:46.328Z,0.00
2018-01-02T12:07:46.363Z,0.00
2018-01-02T12:08:46.428Z,0.00
2018-01-02T12:09:46.422Z,0.00
2018-01-02T12:10:46.466Z,0.00
2018-01-02T12:11:46.691Z,0.00
2018-01-02T12:12:46.555Z,0.00
2018-01-02T12:13:46.561Z,0.00
2018-01-02T12:14:46.591Z,0.00
2018-01-02T12:15:46.657Z,0.00
2018-01-02T12:16:46.658Z,0.00
2018-01-02T12:17:46.716Z,0.00
2018-01-02T12:19:46.791Z,0.00
2018-01-02T12:20:46.805Z,0.00
2018-01-02T12:21:46.845Z,0.00
2018-01-02T12:22:46.894Z,0.00
2018-01-02T12:23:46.909Z,0.00
2018-01-02T12:24:46.944Z,0.00
2018-01-02T12:25:47.007Z,0.00
2018-01-02T12:26:47.005Z,0.00
2018-01-02T12:27:47.239Z,0.00
2018-01-02T12:28:47.101Z,0.00
2018-01-02T12:29:47.102Z,0.00
2018-01-02T12:30:47.138Z,0.00
2018-01-02T12:31:47.207Z,0.00
2018-01-02T12:32:47.222Z,0.00
2018-01-02T12:33:47.319Z,0.00
2018-01-02T12:34:47.319Z,0.00
2018-01-02T12:35:47.317Z,0.00
2018-01-02T12:36:47.342Z,0.00
2018-01-02T12:37:47.411Z,0.00
2018-01-02T12:38:47.427Z,0.00
2018-01-02T12:39:47.461Z,0.00
2018-01-02T12:40:47.519Z,0.00
2018-01-02T12:41:47.523Z,0.00
2018-01-02T12:42:47.548Z,0.00
2018-01-02T12:43:47.636Z,0.00
2018-01-02T12:44:47.820Z,0.00
2018-01-02T12:45:47.958Z,0.00
2018-01-02T12:46:47.727Z,0.00
2018-01-02T12:47:47.751Z,0.00
2018-01-02T12:48:47.754Z,0.00
2018-01-02T12:49:47.826Z,0.00
2018-01-02T12:50:47.841Z,0.00
2018-01-02T12:51:47.855Z,0.00
2018-01-02T12:52:47.946Z,0.00
2018-01-02T12:53:47.938Z,0.00
2018-01-02T12:54:47.978Z,0.00
2018-01-02T12:55:48.028Z,0.00
2018-01-02T12:56:48.039Z,0.00
2018-01-02T12:57:48.071Z,0.00
2018-01-02T12:58:48.132Z,0.00
2018-01-02T12:59:48.130Z,0.00